createdAt,value
2019-01-30T00:00:55.407Z,25.03
2019-01-30T00:03:26.207Z,25.53
2019-01-30T00:05:57.086Z,25.77
2019-01-30T00:08:28.086Z,28.07
2019-01-30T00:10:59.766Z,24.60
2019-01-30T00:13:30.446Z,26.70
2019-01-30T00:16:02.646Z,25.17
2019-01-30T00:18:33.447Z,26.47
2019-01-30T00:21:04.771Z,26.23
2019-01-30T00:23:35.552Z,24.60
2019-01-30T00:26:07.006Z,24.30
2019-01-30T00:28:37.961Z,26.27
2019-01-30T00:31:09.168Z,27.03
2019-01-30T00:33:40.127Z,24.30
2019-01-30T00:36:11.007Z,25.67
2019-01-30T00:38:41.688Z,25.37
2019-01-30T00:41:13.088Z,27.53
2019-01-30T00:43:43.966Z,28.17
2019-01-30T00:46:15.608Z,28.17
2019-01-30T00:48:46.566Z,30.77
2019-01-30T00:51:17.406Z,29.13
2019-01-30T00:53:48.527Z,26.50
2019-01-30T00:56:19.488Z,29.23
2019-01-30T00:58:50.926Z,29.70
2019-01-30T01:01:21.553Z,28.43
2019-01-30T01:03:52.768Z,27.90
2019-01-30T01:06:23.967Z,29.20
2019-01-30T01:08:55.046Z,28.37
2019-01-30T01:11:26.247Z,30.23
2019-01-30T01:13:59.840Z,29.07
2019-01-30T01:16:30.440Z,29.23
2019-01-30T01:19:01.280Z,29.60
2019-01-30T01:21:31.960Z,29.70
2019-01-30T01:24:03.282Z,29.33
2019-01-30T01:26:33.960Z,32.50
2019-01-30T01:29:05.361Z,30.00
2019-01-30T01:31:36.391Z,31.93
2019-01-30T01:34:07.378Z,32.73
2019-01-30T01:36:38.707Z,33.07
2019-01-30T01:39:10.307Z,32.53
2019-01-30T01:41:41.560Z,32.03
2019-01-30T01:44:12.907Z,30.57
2019-01-30T01:46:43.947Z,31.77
2019-01-30T01:49:14.915Z,30.73
2019-01-30T01:51:45.707Z,31.90
2019-01-30T01:54:16.435Z,31.90
2019-01-30T01:56:51.427Z,31.10
2019-01-30T01:59:22.227Z,31.33
2019-01-30T02:01:53.026Z,33.43
2019-01-30T02:04:23.748Z,34.50
2019-01-30T02:06:54.594Z,34.37
2019-01-30T02:09:25.667Z,32.20
2019-01-30T02:11:56.467Z,32.93
2019-01-30T02:14:28.076Z,33.80
2019-01-30T02:16:59.314Z,33.33
2019-01-30T02:19:29.948Z,32.63
2019-01-30T02:22:01.394Z,32.57
2019-01-30T02:24:31.947Z,34.70
2019-01-30T02:27:02.947Z,31.13
2019-01-30T02:29:33.667Z,34.53
2019-01-30T02:32:04.947Z,33.80
2019-01-30T02:34:36.187Z,35.33
2019-01-30T02:37:07.059Z,36.33
2019-01-30T02:39:37.868Z,34.30
2019-01-30T02:42:08.966Z,31.87
2019-01-30T02:44:39.827Z,32.63
2019-01-30T02:47:11.149Z,31.90
2019-01-30T02:49:42.073Z,32.40
2019-01-30T02:52:15.933Z,36.83
2019-01-30T02:54:46.496Z,31.67
2019-01-30T02:57:17.382Z,32.10
2019-01-30T02:59:49.453Z,31.77
2019-01-30T03:02:23.522Z,33.43
2019-01-30T03:04:54.503Z,31.57
2019-01-30T03:07:26.843Z,35.03
2019-01-30T03:09:57.574Z,32.03
2019-01-30T03:12:28.274Z,33.53
2019-01-30T03:14:59.702Z,33.00
2019-01-30T03:17:30.514Z,31.53
2019-01-30T03:20:01.214Z,33.63
2019-01-30T03:22:31.843Z,35.07
2019-01-30T03:25:02.576Z,33.33
2019-01-30T03:27:33.153Z,34.50
2019-01-30T03:30:04.696Z,35.00
2019-01-30T03:32:35.835Z,35.70
2019-01-30T03:35:06.920Z,36.33
2019-01-30T03:37:37.565Z,37.13
2019-01-30T03:40:09.994Z,37.50
2019-01-30T03:42:41.033Z,36.77
2019-01-30T03:45:12.716Z,38.53
2019-01-30T03:47:43.793Z,36.53
2019-01-30T03:50:15.013Z,34.10
2019-01-30T03:52:46.236Z,35.90
2019-01-30T03:55:17.913Z,36.50
2019-01-30T03:57:48.661Z,37.33
2019-01-30T04:00:21.523Z,37.03
2019-01-30T04:02:52.541Z,36.93
2019-01-30T04:05:23.753Z,43.43
2019-01-30T04:07:54.774Z,39.33
2019-01-30T04:10:25.271Z,38.83
2019-01-30T04:12:56.073Z,36.20
2019-01-30T04:15:26.874Z,34.63
2019-01-30T04:17:57.795Z,37.20
2019-01-30T04:20:28.473Z,37.03
2019-01-30T04:22:59.647Z,38.50
2019-01-30T04:25:30.415Z,37.10
2019-01-30T04:28:01.396Z,37.30
2019-01-30T04:30:32.034Z,36.53
2019-01-30T04:33:02.894Z,37.27
2019-01-30T04:35:33.395Z,39.17
2019-01-30T04:38:04.394Z,38.57
2019-01-30T04:40:35.034Z,38.47
2019-01-30T04:43:07.945Z,39.57
2019-01-30T04:45:38.973Z,38.33
2019-01-30T04:48:09.727Z,36.50
2019-01-30T04:50:40.981Z,50.10
2019-01-30T04:53:11.814Z,46.00
2019-01-30T04:55:42.933Z,40.07
2019-01-30T04:58:13.774Z,39.07
2019-01-30T05:00:44.501Z,41.17
2019-01-30T05:03:15.260Z,39.67
2019-01-30T05:05:46.093Z,37.97
2019-01-30T05:08:16.732Z,37.77
2019-01-30T05:10:48.136Z,37.93
2019-01-30T05:13:19.172Z,39.67
2019-01-30T05:15:50.413Z,40.83
2019-01-30T05:18:21.052Z,41.60
2019-01-30T05:20:51.885Z,40.87
2019-01-30T05:23:23.052Z,37.30
2019-01-30T05:25:53.692Z,39.50
2019-01-30T05:28:24.572Z,39.27
2019-01-30T05:30:55.574Z,45.40
2019-01-30T05:33:26.572Z,48.87
2019-01-30T05:35:57.630Z,45.33
2019-01-30T05:38:28.211Z,43.83
2019-01-30T05:40:59.494Z,41.33
2019-01-30T05:43:30.178Z,47.33
2019-01-30T05:46:01.411Z,37.83
2019-01-30T05:48:32.611Z,34.93
2019-01-30T05:51:03.731Z,35.80
2019-01-30T05:53:34.691Z,37.57
2019-01-30T05:56:05.771Z,36.87
2019-01-30T05:58:36.891Z,35.90
2019-01-30T06:01:08.371Z,33.90
2019-01-30T06:03:39.771Z,32.73
2019-01-30T06:06:11.251Z,28.00
2019-01-30T06:08:42.970Z,35.57
2019-01-30T06:11:15.661Z,34.03
2019-01-30T06:13:47.090Z,41.30
2019-01-30T06:16:18.131Z,34.00
2019-01-30T06:18:49.690Z,33.47
2019-01-30T06:21:21.131Z,35.03
2019-01-30T06:23:51.979Z,33.87
2019-01-30T06:26:22.852Z,28.30
2019-01-30T06:28:53.572Z,36.67
2019-01-30T06:31:27.073Z,34.53
2019-01-30T06:33:57.932Z,30.80
2019-01-30T06:36:28.731Z,28.07
2019-01-30T06:39:01.307Z,21.00
2019-01-30T06:41:33.307Z,26.07
2019-01-30T06:44:05.759Z,30.93
2019-01-30T06:46:36.347Z,36.20
2019-01-30T06:49:07.436Z,38.07
2019-01-30T06:51:38.347Z,34.77
2019-01-30T06:54:09.707Z,35.43
2019-01-30T06:56:40.744Z,33.63
2019-01-30T06:59:11.949Z,32.50
2019-01-30T07:01:42.833Z,39.87
2019-01-30T07:04:13.907Z,38.23
2019-01-30T07:06:44.627Z,37.80
2019-01-30T07:09:15.915Z,37.80
2019-01-30T07:11:47.065Z,31.17
2019-01-30T07:14:18.162Z,38.47
2019-01-30T07:16:49.215Z,38.63
2019-01-30T07:19:20.094Z,39.50
2019-01-30T07:21:52.864Z,38.40
2019-01-30T07:24:23.765Z,36.87
2019-01-30T07:26:54.535Z,37.87
2019-01-30T07:29:25.175Z,35.53
2019-01-30T07:31:57.255Z,37.23
2019-01-30T07:34:28.534Z,36.27
2019-01-30T07:36:59.415Z,37.93
2019-01-30T07:39:31.729Z,35.63
2019-01-30T07:42:03.418Z,35.57
2019-01-30T07:44:36.214Z,38.43
2019-01-30T07:47:07.773Z,32.97
2019-01-30T07:49:39.447Z,38.30
2019-01-30T07:52:10.854Z,42.50
2019-01-30T07:54:41.854Z,40.47
2019-01-30T07:57:13.183Z,38.23
2019-01-30T07:59:44.588Z,38.13
2019-01-30T08:02:16.094Z,37.00
2019-01-30T08:04:47.814Z,37.13
2019-01-30T08:07:19.835Z,33.40
2019-01-30T08:09:51.333Z,31.60
2019-01-30T08:12:22.423Z,32.27
2019-01-30T08:14:53.812Z,33.13
2019-01-30T08:17:26.214Z,27.10
2019-01-30T08:19:57.135Z,28.93
2019-01-30T08:22:28.176Z,28.50
2019-01-30T08:25:01.895Z,42.43
2019-01-30T08:27:34.081Z,32.70
2019-01-30T08:30:09.414Z,43.87
2019-01-30T08:32:44.297Z,44.67
2019-01-30T08:35:16.094Z,45.23
2019-01-30T08:37:49.814Z,44.00
2019-01-30T08:40:21.454Z,39.77
2019-01-30T08:42:52.469Z,43.93
2019-01-30T08:45:27.173Z,42.57
2019-01-30T08:47:58.259Z,43.97
2019-01-30T08:50:36.733Z,44.10
2019-01-30T08:53:07.694Z,39.57
2019-01-30T08:55:39.253Z,43.40
2019-01-30T08:58:10.453Z,31.13
2019-01-30T09:00:41.174Z,36.43
2019-01-30T09:03:15.025Z,43.50
2019-01-30T09:05:44.333Z,47.70
2019-01-30T09:08:15.174Z,65.20
2019-01-30T09:10:48.294Z,37.67
2019-01-30T09:13:21.028Z,42.73
2019-01-30T09:15:55.053Z,42.53
2019-01-30T09:18:27.294Z,40.63
2019-01-30T09:20:59.683Z,42.93
2019-01-30T09:23:30.734Z,38.87
2019-01-30T09:26:02.094Z,42.17
2019-01-30T09:28:33.013Z,37.33
2019-01-30T09:31:05.143Z,34.97
2019-01-30T09:33:36.217Z,39.13
2019-01-30T09:36:07.212Z,38.77
2019-01-30T09:38:37.973Z,40.93
2019-01-30T09:41:09.026Z,42.53
2019-01-30T09:43:40.175Z,40.67
2019-01-30T09:46:11.134Z,40.90
2019-01-30T09:48:41.974Z,43.53
2019-01-30T09:51:12.945Z,44.17
2019-01-30T09:53:43.776Z,43.20
2019-01-30T09:56:15.726Z,40.20
2019-01-30T09:58:47.175Z,36.30
2019-01-30T10:01:19.095Z,42.63
2019-01-30T10:03:50.053Z,41.93
2019-01-30T10:06:21.653Z,47.13
2019-01-30T10:08:52.734Z,47.30
2019-01-30T10:11:24.493Z,44.17
2019-01-30T10:13:55.886Z,45.07
2019-01-30T10:16:26.693Z,49.23
2019-01-30T10:18:57.693Z,36.47
2019-01-30T10:21:28.781Z,49.60
2019-01-30T10:23:59.535Z,50.07
2019-01-30T10:26:31.013Z,27.83
2019-01-30T10:29:01.936Z,49.87
2019-01-30T10:31:32.933Z,45.83
2019-01-30T10:34:04.256Z,53.67
2019-01-30T10:36:35.054Z,50.90
2019-01-30T10:39:09.937Z,43.13
2019-01-30T10:41:41.054Z,39.90
2019-01-30T10:44:13.416Z,46.17
2019-01-30T10:46:44.574Z,51.07
2019-01-30T10:49:15.456Z,55.77
2019-01-30T10:51:46.255Z,53.57
2019-01-30T10:54:16.895Z,26.63
2019-01-30T10:56:47.696Z,51.83
2019-01-30T10:59:18.574Z,57.20
2019-01-30T11:01:49.935Z,56.43
2019-01-30T11:04:20.735Z,44.30
2019-01-30T11:06:51.933Z,53.23
2019-01-30T11:09:24.563Z,48.23
2019-01-30T11:11:55.694Z,52.93
2019-01-30T11:14:27.254Z,30.43
2019-01-30T11:16:58.293Z,21.40
2019-01-30T11:19:30.056Z,47.53
2019-01-30T11:22:01.944Z,38.80
2019-01-30T11:24:35.334Z,47.00
2019-01-30T11:27:06.533Z,52.83
2019-01-30T11:29:37.654Z,54.37
2019-01-30T11:32:09.013Z,50.23
2019-01-30T11:34:39.814Z,52.90
2019-01-30T11:37:10.536Z,50.13
2019-01-30T11:39:43.154Z,52.33
2019-01-30T11:42:15.853Z,55.27
2019-01-30T11:44:47.173Z,51.90
2019-01-30T11:47:17.886Z,52.27
2019-01-30T11:49:49.293Z,42.13
2019-01-30T11:52:20.693Z,54.07
2019-01-30T11:54:51.413Z,57.50
2019-01-30T11:57:24.251Z,53.47
2019-01-30T11:59:58.654Z,51.63
2019-01-30T12:02:29.814Z,57.90
2019-01-30T12:05:00.533Z,58.80
2019-01-30T12:07:31.853Z,52.57
2019-01-30T12:10:02.858Z,52.10
2019-01-30T12:12:35.123Z,61.70
2019-01-30T12:15:08.294Z,57.17
2019-01-30T12:17:39.696Z,57.93
2019-01-30T12:20:11.723Z,57.93
2019-01-30T12:22:42.820Z,55.67
2019-01-30T12:25:16.253Z,46.23
2019-01-30T12:27:50.782Z,47.97
2019-01-30T12:30:23.917Z,54.37
2019-01-30T12:32:54.882Z,49.13
2019-01-30T12:35:26.018Z,42.90
2019-01-30T12:37:57.199Z,58.50
2019-01-30T12:40:29.002Z,47.47
2019-01-30T12:43:00.516Z,47.03
2019-01-30T12:45:33.434Z,50.77
2019-01-30T12:48:05.476Z,37.60
2019-01-30T12:50:36.543Z,56.13
2019-01-30T12:53:07.451Z,51.67
2019-01-30T12:55:38.864Z,60.80
2019-01-30T12:58:10.719Z,54.13
2019-01-30T13:00:43.251Z,56.63
2019-01-30T13:03:14.052Z,50.00
2019-01-30T13:05:45.172Z,55.13
2019-01-30T13:08:16.491Z,59.50
2019-01-30T13:10:47.413Z,50.60
2019-01-30T13:13:18.493Z,52.57
2019-01-30T13:15:49.292Z,54.43
2019-01-30T13:18:20.454Z,47.10
2019-01-30T13:20:51.613Z,61.80
2019-01-30T13:23:22.331Z,50.07
2019-01-30T13:25:53.891Z,54.43
2019-01-30T13:28:24.539Z,52.40
2019-01-30T13:30:55.866Z,44.97
2019-01-30T13:33:26.983Z,54.77
2019-01-30T13:35:58.065Z,58.00
2019-01-30T13:38:29.584Z,60.73
2019-01-30T13:41:01.864Z,47.57
2019-01-30T13:43:32.946Z,42.97
2019-01-30T13:46:05.431Z,54.10
2019-01-30T13:48:37.024Z,53.37
2019-01-30T13:51:10.942Z,45.63
2019-01-30T13:53:41.105Z,48.83
2019-01-30T13:56:13.108Z,42.43
2019-01-30T13:58:43.834Z,57.30
2019-01-30T14:01:17.961Z,56.13
2019-01-30T14:03:59.853Z,50.10
2019-01-30T14:06:36.159Z,52.97
2019-01-30T14:09:11.138Z,59.13
2019-01-30T14:11:42.307Z,48.30
2019-01-30T14:14:12.897Z,51.03
2019-01-30T14:16:43.907Z,58.40
2019-01-30T14:19:19.577Z,59.67
2019-01-30T14:21:54.933Z,45.23
2019-01-30T14:24:33.103Z,52.23
2019-01-30T14:27:56.071Z,39.03
2019-01-30T14:30:38.889Z,60.77
2019-01-30T14:33:21.517Z,38.67
2019-01-30T14:35:53.503Z,45.20
2019-01-30T14:38:35.679Z,35.77
2019-01-30T14:41:14.682Z,61.27
2019-01-30T14:43:49.728Z,65.70
2019-01-30T14:46:25.059Z,51.17
2019-01-30T14:48:59.636Z,58.57
2019-01-30T14:51:35.178Z,43.27
2019-01-30T14:54:06.619Z,62.50
2019-01-30T14:56:37.799Z,56.30
2019-01-30T14:59:10.143Z,52.07
2019-01-30T15:01:42.820Z,52.57
2019-01-30T15:04:14.400Z,49.40
2019-01-30T15:06:46.861Z,46.40
2019-01-30T15:09:26.108Z,55.93
2019-01-30T15:12:08.475Z,68.87
2019-01-30T15:14:46.347Z,71.10
2019-01-30T15:17:18.823Z,65.90
2019-01-30T15:19:54.161Z,42.57
2019-01-30T15:22:26.716Z,54.77
2019-01-30T15:24:59.418Z,52.20
2019-01-30T15:27:30.859Z,45.73
2019-01-30T15:30:03.538Z,70.50
2019-01-30T15:32:34.387Z,38.50
2019-01-30T15:35:08.058Z,65.73
2019-01-30T15:37:43.940Z,69.60
2019-01-30T15:40:21.498Z,59.87
2019-01-30T15:42:53.378Z,71.87
2019-01-30T15:45:25.140Z,78.53
2019-01-30T15:47:55.908Z,56.70
2019-01-30T15:50:29.458Z,61.77
2019-01-30T15:53:01.460Z,41.67
2019-01-30T15:55:33.506Z,76.47
2019-01-30T15:58:07.549Z,69.93
2019-01-30T16:00:43.858Z,39.37
2019-01-30T16:03:15.099Z,71.47
2019-01-30T16:05:45.742Z,46.10
2019-01-30T16:08:17.249Z,46.63
2019-01-30T16:10:48.500Z,57.03
2019-01-30T16:13:19.866Z,43.80
2019-01-30T16:15:56.617Z,70.10
2019-01-30T16:18:27.339Z,46.80
2019-01-30T16:20:57.978Z,59.17
2019-01-30T16:23:29.312Z,44.93
2019-01-30T16:25:59.898Z,53.67
2019-01-30T16:28:30.698Z,47.77
2019-01-30T16:31:01.378Z,81.57
2019-01-30T16:33:32.418Z,67.20
2019-01-30T16:36:26.901Z,60.83
2019-01-30T16:38:58.620Z,71.03
2019-01-30T16:41:29.538Z,56.37
2019-01-30T16:44:00.538Z,53.37
2019-01-30T16:46:31.539Z,77.70
2019-01-30T16:49:02.578Z,81.90
2019-01-30T16:51:33.778Z,75.70
2019-01-30T16:54:04.999Z,49.63
2019-01-30T16:56:35.678Z,47.33
2019-01-30T16:59:06.865Z,63.40
2019-01-30T17:01:37.743Z,51.53
2019-01-30T17:04:08.905Z,53.83
2019-01-30T17:06:43.726Z,70.50
2019-01-30T17:09:13.183Z,40.70
2019-01-30T17:11:43.983Z,46.63
2019-01-30T17:14:15.263Z,42.33
2019-01-30T17:16:47.103Z,61.27
2019-01-30T17:19:18.063Z,58.60
2019-01-30T17:21:50.314Z,59.90
2019-01-30T17:24:30.373Z,45.20
2019-01-30T17:27:13.733Z,39.40
2019-01-30T17:29:44.784Z,65.87
2019-01-30T17:32:16.023Z,64.73
2019-01-30T17:34:53.383Z,67.10
2019-01-30T17:37:29.863Z,58.83
2019-01-30T17:40:08.384Z,53.90
2019-01-30T17:42:47.421Z,75.07
2019-01-30T17:45:29.598Z,42.87
2019-01-30T17:48:12.569Z,65.83
2019-01-30T17:50:56.946Z,66.53
2019-01-30T17:53:41.214Z,79.73
2019-01-30T17:56:22.926Z,42.57
2019-01-30T17:59:04.289Z,68.90
2019-01-30T18:01:41.941Z,68.20
2019-01-30T18:04:32.340Z,44.97
2019-01-30T18:07:03.466Z,67.87
2019-01-30T18:09:42.112Z,66.90
2019-01-30T18:12:14.403Z,51.57
2019-01-30T18:14:45.391Z,81.23
2019-01-30T18:17:16.101Z,45.40
2019-01-30T18:19:46.940Z,51.83
2019-01-30T18:22:18.461Z,66.57
2019-01-30T18:24:49.741Z,75.93
2019-01-30T18:27:20.462Z,61.47
2019-01-30T18:29:51.301Z,40.30
2019-01-30T18:32:22.092Z,75.13
2019-01-30T18:34:53.109Z,73.97
2019-01-30T18:37:30.501Z,81.17
2019-01-30T18:40:12.892Z,65.27
2019-01-30T18:42:46.550Z,67.47
2019-01-30T18:45:24.702Z,70.47
2019-01-30T18:48:06.821Z,64.80
2019-01-30T18:50:45.781Z,73.80
2019-01-30T18:53:24.101Z,74.47
2019-01-30T18:56:05.264Z,53.77
2019-01-30T18:58:48.060Z,50.90
2019-01-30T19:01:22.481Z,74.03
2019-01-30T19:04:01.901Z,63.37
2019-01-30T19:06:35.461Z,47.60
2019-01-30T19:09:20.781Z,54.50
2019-01-30T19:11:59.412Z,60.23
2019-01-30T19:14:37.460Z,66.50
2019-01-30T19:17:10.861Z,57.77
2019-01-30T19:19:50.301Z,60.40
2019-01-30T19:22:32.981Z,65.07
2019-01-30T19:25:05.502Z,48.87
2019-01-30T19:27:37.021Z,41.67
2019-01-30T19:30:12.461Z,53.67
2019-01-30T19:32:43.422Z,62.87
2019-01-30T19:35:14.988Z,66.80
2019-01-30T19:37:45.821Z,71.73
2019-01-30T19:40:20.341Z,60.77
2019-01-30T19:42:51.783Z,70.37
2019-01-30T19:45:24.501Z,64.97
2019-01-30T19:47:55.661Z,68.27
2019-01-30T19:50:28.270Z,78.47
2019-01-30T19:53:00.301Z,75.77
2019-01-30T19:55:31.549Z,61.07
2019-01-30T19:58:02.444Z,57.90
2019-01-30T20:00:39.422Z,51.97
2019-01-30T20:03:20.748Z,55.03
2019-01-30T20:05:51.829Z,60.00
2019-01-30T20:08:22.781Z,51.90
2019-01-30T20:10:53.741Z,46.97
2019-01-30T20:13:24.588Z,59.10
2019-01-30T20:15:55.377Z,46.23
2019-01-30T20:18:26.830Z,50.03
2019-01-30T20:20:57.548Z,60.03
2019-01-30T20:23:28.983Z,80.70
2019-01-30T20:25:59.928Z,51.80
2019-01-30T20:28:36.582Z,59.57
2019-01-30T20:31:07.741Z,69.50
2019-01-30T20:33:38.709Z,79.90
2019-01-30T20:36:09.941Z,43.93
2019-01-30T20:38:45.185Z,57.50
2019-01-30T20:41:16.589Z,66.30
2019-01-30T20:43:50.430Z,77.93
2019-01-30T20:46:21.382Z,65.23
2019-01-30T20:48:53.142Z,79.73
2019-01-30T20:51:24.381Z,93.27
2019-01-30T20:54:03.068Z,86.50
2019-01-30T20:57:15.642Z,58.90
2019-01-30T21:00:17.861Z,36.73
2019-01-30T21:03:13.507Z,83.50
2019-01-30T21:06:01.701Z,55.83
2019-01-30T21:08:35.143Z,75.23
2019-01-30T21:11:08.200Z,44.00
2019-01-30T21:13:39.902Z,73.57
2019-01-30T21:16:19.261Z,84.77
2019-01-30T21:19:06.941Z,78.13
2019-01-30T21:21:58.021Z,74.37
2019-01-30T21:24:51.041Z,83.33
2019-01-30T21:27:41.021Z,82.73
2019-01-30T21:30:40.422Z,72.53
2019-01-30T21:33:32.220Z,84.47
2019-01-30T21:36:19.420Z,83.03
2019-01-30T21:38:58.714Z,78.33
2019-01-30T21:41:48.313Z,72.50
2019-01-30T21:44:37.794Z,87.70
2019-01-30T21:47:21.353Z,77.70
2019-01-30T21:50:07.673Z,61.97
2019-01-30T21:52:44.755Z,85.47
2019-01-30T21:55:34.994Z,92.20
2019-01-30T21:58:17.594Z,82.07
2019-01-30T22:01:08.398Z,78.10
2019-01-30T22:03:53.554Z,64.63
2019-01-30T22:06:49.273Z,49.33
2019-01-30T22:09:29.153Z,81.90
2019-01-30T22:12:10.915Z,83.27
2019-01-30T22:14:47.793Z,69.60
2019-01-30T22:17:34.635Z,66.00
2019-01-30T22:20:17.753Z,71.13
2019-01-30T22:23:05.914Z,79.37
2019-01-30T22:25:39.637Z,53.60
2019-01-30T22:28:11.233Z,76.90
2019-01-30T22:30:42.801Z,43.47
2019-01-30T22:33:14.275Z,43.40
2019-01-30T22:35:44.948Z,56.80
2019-01-30T22:38:18.001Z,54.47
2019-01-30T22:40:49.948Z,62.13
2019-01-30T22:43:34.732Z,39.27
2019-01-30T22:46:16.857Z,67.30
2019-01-30T22:48:54.977Z,43.63
2019-01-30T22:51:37.618Z,64.47
2019-01-30T22:54:22.605Z,34.27
2019-01-30T22:56:55.177Z,64.17
2019-01-30T22:59:26.796Z,74.40
2019-01-30T23:02:01.273Z,78.23
2019-01-30T23:04:58.533Z,91.57
2019-01-30T23:07:49.011Z,80.00
2019-01-30T23:11:03.561Z,83.17
2019-01-30T23:13:46.879Z,82.53
2019-01-30T23:16:45.563Z,44.50
2019-01-30T23:19:38.236Z,69.50
2019-01-30T23:22:40.395Z,75.90
2019-01-30T23:25:43.471Z,74.73
2019-01-30T23:28:40.474Z,69.97
2019-01-30T23:31:24.319Z,70.10
2019-01-30T23:34:19.965Z,45.43
2019-01-30T23:37:07.559Z,57.53
2019-01-30T23:39:48.192Z,48.37
2019-01-30T23:42:44.756Z,82.07
2019-01-30T23:45:44.915Z,88.90
2019-01-30T23:48:46.284Z,91.30
2019-01-30T23:51:44.284Z,81.57
2019-01-30T23:54:52.035Z,82.37
2019-01-30T23:57:40.195Z,91.30
